sensor_id;sensor_type;location;lat;lon;timestamp;pressure;altitude;pressure_sealevel;temperature;humidity
69245;BME280;56357;52.304;4.870;2022-11-21T00:00:25;100849.56;;;16.11;55.35
69245;BME280;56357;52.304;4.870;2022-11-21T00:02:52;100852.88;;;16.08;55.22
69245;BME280;56357;52.304;4.870;2022-11-21T00:05:19;100839.72;;;16.04;55.49
69245;BME280;56357;52.304;4.870;2022-11-21T00:07:45;100848.88;;;15.99;55.51
69245;BME280;56357;52.304;4.870;2022-11-21T00:10:12;100856.13;;;15.95;55.30
69245;BME280;56357;52.304;4.870;2022-11-21T00:12:38;100853.03;;;15.92;55.66
69245;BME280;56357;52.304;4.870;2022-11-21T00:15:05;100858.41;;;16.03;55.72
69245;BME280;56357;52.304;4.870;2022-11-21T00:17:31;100852.13;;;15.86;55.81
69245;BME280;56357;52.304;4.870;2022-11-21T00:19:57;100847.75;;;15.95;54.80
69245;BME280;56357;52.304;4.870;2022-11-21T00:22:24;100856.31;;;15.89;55.73
69245;BME280;56357;52.304;4.870;2022-11-21T00:24:50;100859.50;;;15.97;54.75
69245;BME280;56357;52.304;4.870;2022-11-21T00:27:16;100855.81;;;15.92;55.43
69245;BME280;56357;52.304;4.870;2022-11-21T00:29:43;100863.34;;;15.91;55.27
69245;BME280;56357;52.304;4.870;2022-11-21T00:32:09;100858.59;;;15.92;55.54
69245;BME280;56357;52.304;4.870;2022-11-21T00:34:36;100852.00;;;16.03;55.20
69245;BME280;56357;52.304;4.870;2022-11-21T00:37:02;100852.03;;;15.76;55.77
69245;BME280;56357;52.304;4.870;2022-11-21T00:39:28;100855.50;;;15.88;55.34
69245;BME280;56357;52.304;4.870;2022-11-21T00:41:55;100854.97;;;15.91;55.12
69245;BME280;56357;52.304;4.870;2022-11-21T00:44:21;100848.19;;;15.82;55.53
69245;BME280;56357;52.304;4.870;2022-11-21T00:46:47;100861.09;;;15.88;54.72
69245;BME280;56357;52.304;4.870;2022-11-21T00:49:14;100852.75;;;15.93;55.15
69245;BME280;56357;52.304;4.870;2022-11-21T00:51:40;100843.69;;;15.81;55.34
69245;BME280;56357;52.304;4.870;2022-11-21T00:54:07;100837.69;;;15.94;55.22
69245;BME280;56357;52.304;4.870;2022-11-21T00:56:34;100838.19;;;15.91;55.08
69245;BME280;56357;52.304;4.870;2022-11-21T00:59:00;100833.16;;;15.88;55.09
69245;BME280;56357;52.304;4.870;2022-11-21T01:01:27;100830.94;;;15.90;54.93
69245;BME280;56357;52.304;4.870;2022-11-21T01:03:53;100823.19;;;16.02;54.81
69245;BME280;56357;52.304;4.870;2022-11-21T01:06:19;100809.44;;;15.91;55.16
69245;BME280;56357;52.304;4.870;2022-11-21T01:08:46;100808.84;;;15.89;55.34
69245;BME280;56357;52.304;4.870;2022-11-21T01:11:17;100796.81;;;15.83;55.14
69245;BME280;56357;52.304;4.870;2022-11-21T01:13:44;100788.50;;;15.93;54.92
69245;BME280;56357;52.304;4.870;2022-11-21T01:16:15;100793.78;;;15.90;55.16
69245;BME280;56357;52.304;4.870;2022-11-21T01:18:42;100789.63;;;15.92;55.14
69245;BME280;56357;52.304;4.870;2022-11-21T01:21:17;100789.66;;;15.97;54.63
69245;BME280;56357;52.304;4.870;2022-11-21T01:23:44;100799.41;;;15.95;54.91
69245;BME280;56357;52.304;4.870;2022-11-21T01:26:14;100806.38;;;15.92;55.10
69245;BME280;56357;52.304;4.870;2022-11-21T01:28:41;100806.91;;;15.89;54.86
69245;BME280;56357;52.304;4.870;2022-11-21T01:31:16;100804.69;;;15.91;54.96
69245;BME280;56357;52.304;4.870;2022-11-21T01:33:44;100805.53;;;15.92;54.55
69245;BME280;56357;52.304;4.870;2022-11-21T01:36:13;100812.56;;;15.94;55.10
69245;BME280;56357;52.304;4.870;2022-11-21T01:38:41;100813.03;;;15.86;55.19
69245;BME280;56357;52.304;4.870;2022-11-21T01:41:09;100809.75;;;15.94;55.13
69245;BME280;56357;52.304;4.870;2022-11-21T01:43:36;100815.88;;;15.91;54.76
69245;BME280;56357;52.304;4.870;2022-11-21T01:46:12;100828.94;;;15.86;55.06
69245;BME280;56357;52.304;4.870;2022-11-21T01:49:03;100823.16;;;15.92;54.94
69245;BME280;56357;52.304;4.870;2022-11-21T01:52:03;100830.09;;;15.90;54.93
69245;BME280;56357;52.304;4.870;2022-11-21T01:54:38;100835.47;;;15.96;54.86
69245;BME280;56357;52.304;4.870;2022-11-21T01:57:13;100835.97;;;15.88;54.94
69245;BME280;56357;52.304;4.870;2022-11-21T02:02:12;100824.59;;;16.00;54.90
69245;BME280;56357;52.304;4.870;2022-11-21T02:04:41;100833.00;;;16.05;54.34
69245;BME280;56357;52.304;4.870;2022-11-21T02:07:10;100836.06;;;16.03;54.65
69245;BME280;56357;52.304;4.870;2022-11-21T02:09:40;100824.91;;;16.03;54.61
69245;BME280;56357;52.304;4.870;2022-11-21T02:12:14;100832.22;;;16.09;54.63
69245;BME280;56357;52.304;4.870;2022-11-21T02:14:43;100834.44;;;16.07;54.44
69245;BME280;56357;52.304;4.870;2022-11-21T02:17:10;100820.34;;;15.92;54.63
69245;BME280;56357;52.304;4.870;2022-11-21T02:19:55;100822.31;;;15.97;54.45
69245;BME280;56357;52.304;4.870;2022-11-21T02:25:17;100818.38;;;15.93;54.60
69245;BME280;56357;52.304;4.870;2022-11-21T02:27:45;100822.09;;;16.03;54.34
69245;BME280;56357;52.304;4.870;2022-11-21T02:30:15;100810.88;;;15.98;54.35
69245;BME280;56357;52.304;4.870;2022-11-21T02:32:44;100798.25;;;15.91;54.83
69245;BME280;56357;52.304;4.870;2022-11-21T02:35:14;100800.75;;;15.87;54.78
69245;BME280;56357;52.304;4.870;2022-11-21T02:37:41;100804.75;;;15.96;54.66
69245;BME280;56357;52.304;4.870;2022-11-21T02:40:22;100806.91;;;15.89;54.96
69245;BME280;56357;52.304;4.870;2022-11-21T02:43:05;100781.28;;;15.97;54.87
69245;BME280;56357;52.304;4.870;2022-11-21T02:45:41;100797.47;;;15.95;54.62
69245;BME280;56357;52.304;4.870;2022-11-21T02:48:09;100802.47;;;15.93;54.80
69245;BME280;56357;52.304;4.870;2022-11-21T02:50:42;100797.81;;;16.04;54.52
69245;BME280;56357;52.304;4.870;2022-11-21T02:53:12;100788.59;;;16.03;54.14
69245;BME280;56357;52.304;4.870;2022-11-21T02:55:39;100806.38;;;15.92;54.96
69245;BME280;56357;52.304;4.870;2022-11-21T02:58:05;100791.59;;;15.97;54.47
69245;BME280;56357;52.304;4.870;2022-11-21T03:00:33;100786.88;;;15.97;54.86
69245;BME280;56357;52.304;4.870;2022-11-21T03:03:00;100777.69;;;16.02;54.41
69245;BME280;56357;52.304;4.870;2022-11-21T03:05:27;100784.66;;;15.99;54.66
69245;BME280;56357;52.304;4.870;2022-11-21T03:07:53;100782.94;;;15.98;54.35
69245;BME280;56357;52.304;4.870;2022-11-21T03:10:20;100779.66;;;16.06;54.35
69245;BME280;56357;52.304;4.870;2022-11-21T03:12:46;100776.28;;;16.04;54.20
69245;BME280;56357;52.304;4.870;2022-11-21T03:15:14;100755.38;;;16.07;54.42
69245;BME280;56357;52.304;4.870;2022-11-21T03:17:41;100752.34;;;16.13;54.08
69245;BME280;56357;52.304;4.870;2022-11-21T03:20:09;100760.69;;;16.08;54.23
69245;BME280;56357;52.304;4.870;2022-11-21T03:22:35;100756.28;;;16.17;54.14
69245;BME280;56357;52.304;4.870;2022-11-21T03:25:02;100745.06;;;16.12;54.27
69245;BME280;56357;52.304;4.870;2022-11-21T03:27:28;100742.03;;;16.19;54.30
69245;BME280;56357;52.304;4.870;2022-11-21T03:29:54;100746.78;;;16.18;54.01
69245;BME280;56357;52.304;4.870;2022-11-21T03:32:21;100746.78;;;16.23;53.68
69245;BME280;56357;52.304;4.870;2022-11-21T03:34:47;100752.66;;;16.22;53.83
69245;BME280;56357;52.304;4.870;2022-11-21T03:37:13;100762.94;;;16.11;54.11
69245;BME280;56357;52.304;4.870;2022-11-21T03:39:41;100759.53;;;16.04;54.44
69245;BME280;56357;52.304;4.870;2022-11-21T03:42:07;100744.53;;;16.15;54.33
69245;BME280;56357;52.304;4.870;2022-11-21T03:44:33;100754.06;;;16.19;54.10
69245;BME280;56357;52.304;4.870;2022-11-21T03:47:00;100760.47;;;16.20;53.93
69245;BME280;56357;52.304;4.870;2022-11-21T03:49:26;100760.81;;;16.28;53.77
69245;BME280;56357;52.304;4.870;2022-11-21T03:51:52;100763.25;;;16.20;53.85
69245;BME280;56357;52.304;4.870;2022-11-21T03:54:19;100751.28;;;16.19;54.01
69245;BME280;56357;52.304;4.870;2022-11-21T03:56:45;100758.53;;;16.20;54.01
69245;BME280;56357;52.304;4.870;2022-11-21T03:59:12;100757.97;;;16.23;54.00
69245;BME280;56357;52.304;4.870;2022-11-21T04:01:38;100758.28;;;16.27;53.70
69245;BME280;56357;52.304;4.870;2022-11-21T04:04:04;100746.53;;;16.25;53.74
69245;BME280;56357;52.304;4.870;2022-11-21T04:06:31;100749.78;;;16.12;54.52
69245;BME280;56357;52.304;4.870;2022-11-21T04:08:57;100740.63;;;16.21;54.02
69245;BME280;56357;52.304;4.870;2022-11-21T04:11:24;100742.91;;;16.29;54.11
69245;BME280;56357;52.304;4.870;2022-11-21T04:13:51;100741.81;;;16.30;53.90
69245;BME280;56357;52.304;4.870;2022-11-21T04:16:18;100737.88;;;16.26;53.83
69245;BME280;56357;52.304;4.870;2022-11-21T04:18:44;100735.88;;;16.17;54.05
69245;BME280;56357;52.304;4.870;2022-11-21T04:21:11;100733.41;;;16.25;53.75
69245;BME280;56357;52.304;4.870;2022-11-21T04:23:37;100727.00;;;16.25;53.91
69245;BME280;56357;52.304;4.870;2022-11-21T04:26:04;100714.41;;;16.22;53.93
69245;BME280;56357;52.304;4.870;2022-11-21T04:28:30;100733.44;;;16.35;53.39
69245;BME280;56357;52.304;4.870;2022-11-21T04:31:07;100735.63;;;16.23;53.62
69245;BME280;56357;52.304;4.870;2022-11-21T04:33:34;100722.78;;;16.27;53.72
69245;BME280;56357;52.304;4.870;2022-11-21T04:36:00;100717.50;;;16.31;53.99
69245;BME280;56357;52.304;4.870;2022-11-21T04:38:27;100721.66;;;16.23;53.86
69245;BME280;56357;52.304;4.870;2022-11-21T04:40:53;100726.44;;;16.28;54.01
69245;BME280;56357;52.304;4.870;2022-11-21T04:43:20;100710.53;;;16.33;54.01
69245;BME280;56357;52.304;4.870;2022-11-21T04:45:46;100712.16;;;16.24;53.94
69245;BME280;56357;52.304;4.870;2022-11-21T04:48:12;100704.63;;;16.25;53.80
69245;BME280;56357;52.304;4.870;2022-11-21T04:50:39;100698.75;;;16.26;53.47
69245;BME280;56357;52.304;4.870;2022-11-21T04:53:05;100690.13;;;16.33;54.22
69245;BME280;56357;52.304;4.870;2022-11-21T04:55:32;100692.09;;;16.37;53.95
69245;BME280;56357;52.304;4.870;2022-11-21T04:57:58;100691.56;;;16.40;53.80
69245;BME280;56357;52.304;4.870;2022-11-21T05:00:25;100691.81;;;16.34;54.06
69245;BME280;56357;52.304;4.870;2022-11-21T05:02:51;100687.34;;;16.38;53.52
69245;BME280;56357;52.304;4.870;2022-11-21T05:05:18;100679.81;;;16.38;53.70
69245;BME280;56357;52.304;4.870;2022-11-21T05:07:44;100686.50;;;16.37;53.86
69245;BME280;56357;52.304;4.870;2022-11-21T05:10:11;100679.28;;;16.46;54.14
69245;BME280;56357;52.304;4.870;2022-11-21T05:12:37;100683.44;;;16.39;54.22
69245;BME280;56357;52.304;4.870;2022-11-21T05:15:21;100682.91;;;16.42;53.86
69245;BME280;56357;52.304;4.870;2022-11-21T05:17:47;100676.72;;;16.35;53.92
69245;BME280;56357;52.304;4.870;2022-11-21T05:20:14;100673.09;;;16.39;53.76
69245;BME280;56357;52.304;4.870;2022-11-21T05:22:42;100679.25;;;16.36;53.83
69245;BME280;56357;52.304;4.870;2022-11-21T05:25:09;100681.47;;;16.34;53.65
69245;BME280;56357;52.304;4.870;2022-11-21T05:27:36;100674.19;;;16.33;54.18
69245;BME280;56357;52.304;4.870;2022-11-21T05:30:02;100664.44;;;16.41;54.02
69245;BME280;56357;52.304;4.870;2022-11-21T05:32:29;100666.41;;;16.40;53.66
69245;BME280;56357;52.304;4.870;2022-11-21T05:34:55;100671.97;;;16.35;53.79
69245;BME280;56357;52.304;4.870;2022-11-21T05:37:22;100666.94;;;16.37;54.21
69245;BME280;56357;52.304;4.870;2022-11-21T05:39:48;100667.22;;;16.41;53.72
69245;BME280;56357;52.304;4.870;2022-11-21T05:42:14;100661.16;;;16.49;53.57
69245;BME280;56357;52.304;4.870;2022-11-21T05:45:01;100662.50;;;16.36;53.84
69245;BME280;56357;52.304;4.870;2022-11-21T05:47:27;100656.34;;;16.39;53.88
69245;BME280;56357;52.304;4.870;2022-11-21T05:49:53;100662.00;;;16.50;53.84
69245;BME280;56357;52.304;4.870;2022-11-21T05:52:19;100655.81;;;16.47;53.64
69245;BME280;56357;52.304;4.870;2022-11-21T05:54:46;100659.78;;;16.57;53.46
69245;BME280;56357;52.304;4.870;2022-11-21T05:57:12;100656.97;;;16.52;53.81
69245;BME280;56357;52.304;4.870;2022-11-21T05:59:39;100662.56;;;16.52;53.29
69245;BME280;56357;52.304;4.870;2022-11-21T06:02:05;100661.38;;;16.42;54.04
69245;BME280;56357;52.304;4.870;2022-11-21T06:04:49;100656.91;;;16.46;53.91
69245;BME280;56357;52.304;4.870;2022-11-21T06:07:15;100660.91;;;16.56;54.00
69245;BME280;56357;52.304;4.870;2022-11-21T06:09:42;100649.69;;;16.51;53.93
69245;BME280;56357;52.304;4.870;2022-11-21T06:12:08;100650.28;;;16.58;54.01
69245;BME280;56357;52.304;4.870;2022-11-21T06:14:35;100644.66;;;16.53;53.94
69245;BME280;56357;52.304;4.870;2022-11-21T06:17:01;100648.31;;;16.48;54.14
69245;BME280;56357;52.304;4.870;2022-11-21T06:19:27;100634.03;;;16.50;54.23
69245;BME280;56357;52.304;4.870;2022-11-21T06:21:54;100635.72;;;16.51;54.17
69245;BME280;56357;52.304;4.870;2022-11-21T06:24:20;100628.75;;;16.48;53.79
69245;BME280;56357;52.304;4.870;2022-11-21T06:26:47;100631.00;;;16.61;54.15
69245;BME280;56357;52.304;4.870;2022-11-21T06:29:13;100637.97;;;16.64;54.01
69245;BME280;56357;52.304;4.870;2022-11-21T06:31:40;100635.75;;;16.66;53.79
69245;BME280;56357;52.304;4.870;2022-11-21T06:34:07;100626.25;;;16.62;53.42
69245;BME280;56357;52.304;4.870;2022-11-21T06:36:33;100625.72;;;16.75;53.47
69245;BME280;56357;52.304;4.870;2022-11-21T06:39:00;100610.00;;;16.59;54.29
69245;BME280;56357;52.304;4.870;2022-11-21T06:41:26;100614.78;;;16.63;53.94
69245;BME280;56357;52.304;4.870;2022-11-21T06:43:57;100607.78;;;16.66;54.11
69245;BME280;56357;52.304;4.870;2022-11-21T06:46:24;100613.69;;;16.69;53.95
69245;BME280;56357;52.304;4.870;2022-11-21T06:48:50;100608.66;;;16.81;53.64
69245;BME280;56357;52.304;4.870;2022-11-21T06:51:21;100600.81;;;16.63;55.01
69245;BME280;56357;52.304;4.870;2022-11-21T06:53:52;100605.84;;;16.66;55.07
69245;BME280;56357;52.304;4.870;2022-11-21T06:56:20;100593.56;;;16.82;55.19
69245;BME280;56357;52.304;4.870;2022-11-21T06:58:46;100597.72;;;16.65;55.24
69245;BME280;56357;52.304;4.870;2022-11-21T07:01:13;100601.09;;;16.77;54.80
69245;BME280;56357;52.304;4.870;2022-11-21T07:03:39;100601.09;;;16.82;54.84
69245;BME280;56357;52.304;4.870;2022-11-21T07:06:05;100594.94;;;16.80;55.03
69245;BME280;56357;52.304;4.870;2022-11-21T07:08:33;100596.06;;;16.74;55.09
69245;BME280;56357;52.304;4.870;2022-11-21T07:11:05;100593.25;;;16.69;55.41
69245;BME280;56357;52.304;4.870;2022-11-21T07:13:32;100584.59;;;16.70;55.35
69245;BME280;56357;52.304;4.870;2022-11-21T07:16:03;100582.06;;;16.64;55.36
69245;BME280;56357;52.304;4.870;2022-11-21T07:18:30;100575.38;;;16.60;55.84
69245;BME280;56357;52.304;4.870;2022-11-21T07:21:01;100585.41;;;16.66;55.67
69245;BME280;56357;52.304;4.870;2022-11-21T07:23:28;100587.38;;;16.60;55.67
69245;BME280;56357;52.304;4.870;2022-11-21T07:25:58;100578.19;;;16.75;55.30
69245;BME280;56357;52.304;4.870;2022-11-21T07:28:26;100566.13;;;16.74;55.28
69245;BME280;56357;52.304;4.870;2022-11-21T07:30:57;100578.16;;;16.70;55.43
69245;BME280;56357;52.304;4.870;2022-11-21T07:33:24;100581.81;;;16.65;55.53
69245;BME280;56357;52.304;4.870;2022-11-21T07:35:51;100566.41;;;16.78;55.41
69245;BME280;56357;52.304;4.870;2022-11-21T07:38:17;100563.09;;;16.81;54.95
69245;BME280;56357;52.304;4.870;2022-11-21T07:40:44;100582.09;;;16.79;55.36
69245;BME280;56357;52.304;4.870;2022-11-21T07:43:10;100576.47;;;16.74;55.34
69245;BME280;56357;52.304;4.870;2022-11-21T07:45:37;100577.31;;;16.74;55.89
69245;BME280;56357;52.304;4.870;2022-11-21T07:48:05;100565.31;;;16.79;55.48
69245;BME280;56357;52.304;4.870;2022-11-21T07:50:32;100561.38;;;16.85;55.60
69245;BME280;56357;52.304;4.870;2022-11-21T07:53:00;100556.09;;;16.73;56.02
69245;BME280;56357;52.304;4.870;2022-11-21T07:55:27;100560.00;;;16.72;55.95
69245;BME280;56357;52.304;4.870;2022-11-21T07:58:08;100553.00;;;16.80;56.17
69245;BME280;56357;52.304;4.870;2022-11-21T08:00:36;100549.66;;;16.73;56.03
69245;BME280;56357;52.304;4.870;2022-11-21T08:03:04;100552.97;;;16.70;56.46
69245;BME280;56357;52.304;4.870;2022-11-21T08:05:37;100549.66;;;16.73;56.58
69245;BME280;56357;52.304;4.870;2022-11-21T08:08:05;100545.47;;;16.65;56.71
69245;BME280;56357;52.304;4.870;2022-11-21T08:10:32;100542.38;;;16.72;56.28
69245;BME280;56357;52.304;4.870;2022-11-21T08:12:58;100536.22;;;16.90;56.15
69245;BME280;56357;52.304;4.870;2022-11-21T08:15:24;100528.94;;;16.94;56.39
69245;BME280;56357;52.304;4.870;2022-11-21T08:17:51;100530.06;;;16.98;56.37
69245;BME280;56357;52.304;4.870;2022-11-21T08:20:17;100524.75;;;17.11;55.51
69245;BME280;56357;52.304;4.870;2022-11-21T08:22:44;100527.25;;;17.03;55.66
69245;BME280;56357;52.304;4.870;2022-11-21T08:25:10;100529.22;;;16.77;56.27
69245;BME280;56357;52.304;4.870;2022-11-21T08:27:37;100534.53;;;16.84;56.53
69245;BME280;56357;52.304;4.870;2022-11-21T08:30:06;100521.41;;;16.69;56.65
69245;BME280;56357;52.304;4.870;2022-11-21T08:32:33;100512.75;;;16.81;56.55
69245;BME280;56357;52.304;4.870;2022-11-21T08:34:59;100518.03;;;16.77;56.80
69245;BME280;56357;52.304;4.870;2022-11-21T08:37:26;100510.78;;;16.76;57.00
69245;BME280;56357;52.304;4.870;2022-11-21T08:39:54;100501.81;;;16.99;56.72
69245;BME280;56357;52.304;4.870;2022-11-21T08:42:20;100507.13;;;17.01;57.13
69245;BME280;56357;52.304;4.870;2022-11-21T08:44:46;100497.59;;;16.97;57.01
69245;BME280;56357;52.304;4.870;2022-11-21T08:47:13;100488.66;;;16.90;57.22
69245;BME280;56357;52.304;4.870;2022-11-21T08:49:39;100489.78;;;16.84;57.61
69245;BME280;56357;52.304;4.870;2022-11-21T08:52:06;100485.56;;;17.01;57.71
69245;BME280;56357;52.304;4.870;2022-11-21T08:54:32;100488.38;;;16.91;57.34
69245;BME280;56357;52.304;4.870;2022-11-21T08:56:59;100493.69;;;17.03;56.68
69245;BME280;56357;52.304;4.870;2022-11-21T08:59:25;100494.25;;;16.90;57.45
69245;BME280;56357;52.304;4.870;2022-11-21T09:01:51;100481.94;;;16.96;57.36
69245;BME280;56357;52.304;4.870;2022-11-21T09:04:18;100476.34;;;17.01;56.80
69245;BME280;56357;52.304;4.870;2022-11-21T09:06:44;100485.31;;;16.88;57.26
69245;BME280;56357;52.304;4.870;2022-11-21T09:09:11;100477.22;;;16.86;57.33
69245;BME280;56357;52.304;4.870;2022-11-21T09:11:37;100469.94;;;16.90;56.93
69245;BME280;56357;52.304;4.870;2022-11-21T09:14:03;100474.91;;;17.08;56.49
69245;BME280;56357;52.304;4.870;2022-11-21T09:16:47;100463.47;;;16.85;56.44
69245;BME280;56357;52.304;4.870;2022-11-21T09:19:27;100463.47;;;16.85;56.54
69245;BME280;56357;52.304;4.870;2022-11-21T09:21:54;100451.19;;;16.91;56.32
69245;BME280;56357;52.304;4.870;2022-11-21T09:24:20;100459.84;;;16.89;56.48
69245;BME280;56357;52.304;4.870;2022-11-21T09:26:47;100448.66;;;16.89;56.53
69245;BME280;56357;52.304;4.870;2022-11-21T09:29:13;100441.69;;;16.92;56.36
69245;BME280;56357;52.304;4.870;2022-11-21T09:31:41;100442.47;;;17.07;56.22
69245;BME280;56357;52.304;4.870;2022-11-21T09:34:07;100434.91;;;17.08;55.77
69245;BME280;56357;52.304;4.870;2022-11-21T09:36:34;100436.34;;;17.05;55.99
69245;BME280;56357;52.304;4.870;2022-11-21T09:39:01;100423.66;;;17.28;55.52
69245;BME280;56357;52.304;4.870;2022-11-21T09:41:58;100431.47;;;17.36;55.52
69245;BME280;56357;52.304;4.870;2022-11-21T09:47:22;100425.19;;;17.64;54.86
69245;BME280;56357;52.304;4.870;2022-11-21T09:49:54;100426.84;;;17.70;54.57
69245;BME280;56357;52.304;4.870;2022-11-21T09:52:25;100424.00;;;17.75;54.38
69245;BME280;56357;52.304;4.870;2022-11-21T09:54:58;100427.38;;;17.77;54.46
69245;BME280;56357;52.304;4.870;2022-11-21T09:57:25;100407.41;;;17.89;54.04
69245;BME280;56357;52.304;4.870;2022-11-21T09:59:52;100413.06;;;17.84;53.99
69245;BME280;56357;52.304;4.870;2022-11-21T10:02:20;100419.97;;;17.96;53.89
69245;BME280;56357;52.304;4.870;2022-11-21T10:04:49;100413.78;;;17.99;53.73
69245;BME280;56357;52.304;4.870;2022-11-21T10:07:20;100413.56;;;17.91;53.80
69245;BME280;56357;52.304;4.870;2022-11-21T10:10:14;100421.66;;;17.97;53.71
69245;BME280;56357;52.304;4.870;2022-11-21T10:18:28;100404.78;;;18.02;53.50
69245;BME280;56357;52.304;4.870;2022-11-21T10:21:39;100385.72;;;18.09;53.19
69245;BME280;56357;52.304;4.870;2022-11-21T10:24:19;100390.09;;;18.20;53.05
69245;BME280;56357;52.304;4.870;2022-11-21T10:26:58;100382.78;;;18.24;52.81
69245;BME280;56357;52.304;4.870;2022-11-21T10:29:30;100378.81;;;18.25;52.77
69245;BME280;56357;52.304;4.870;2022-11-21T10:32:01;100380.41;;;18.37;52.57
69245;BME280;56357;52.304;4.870;2022-11-21T10:34:33;100376.03;;;18.25;52.96
69245;BME280;56357;52.304;4.870;2022-11-21T10:37:17;100373.69;;;18.38;52.83
69245;BME280;56357;52.304;4.870;2022-11-21T10:39:48;100359.81;;;18.22;52.59
69245;BME280;56357;52.304;4.870;2022-11-21T10:42:31;100361.94;;;18.36;52.34
69245;BME280;56357;52.304;4.870;2022-11-21T10:45:00;100352.38;;;18.37;52.66
69245;BME280;56357;52.304;4.870;2022-11-21T10:47:48;100357.91;;;18.47;52.34
69245;BME280;56357;52.304;4.870;2022-11-21T10:50:39;100349.84;;;18.40;52.54
69245;BME280;56357;52.304;4.870;2022-11-21T10:53:16;100348.16;;;18.39;52.83
69245;BME280;56357;52.304;4.870;2022-11-21T10:56:04;100350.72;;;18.36;53.06
69245;BME280;56357;52.304;4.870;2022-11-21T10:58:44;100340.78;;;18.48;52.93
69245;BME280;56357;52.304;4.870;2022-11-21T11:01:34;100341.09;;;18.47;52.53
69245;BME280;56357;52.304;4.870;2022-11-21T11:06:38;100328.63;;;18.29;52.66
69245;BME280;56357;52.304;4.870;2022-11-21T11:09:04;100328.75;;;18.14;53.20
69245;BME280;56357;52.304;4.870;2022-11-21T11:11:32;100328.56;;;18.05;53.94
69245;BME280;56357;52.304;4.870;2022-11-21T11:14:04;100327.50;;;17.96;53.80
69245;BME280;56357;52.304;4.870;2022-11-21T11:16:34;100321.63;;;17.98;53.83
69245;BME280;56357;52.304;4.870;2022-11-21T11:19:05;100314.00;;;18.03;53.75
69245;BME280;56357;52.304;4.870;2022-11-21T11:31:58;100283.06;;;18.13;54.03
69245;BME280;56357;52.304;4.870;2022-11-21T11:34:37;100287.09;;;18.02;54.14
69245;BME280;56357;52.304;4.870;2022-11-21T11:48:47;100251.75;;;18.11;54.21
69245;BME280;56357;52.304;4.870;2022-11-21T11:51:19;100249.16;;;18.15;54.11
69245;BME280;56357;52.304;4.870;2022-11-21T11:53:52;100235.88;;;18.25;53.82
69245;BME280;56357;52.304;4.870;2022-11-21T11:56:32;100235.00;;;18.30;53.84
69245;BME280;56357;52.304;4.870;2022-11-21T11:59:09;100224.00;;;18.34;53.91
69245;BME280;56357;52.304;4.870;2022-11-21T12:01:47;100225.09;;;18.38;53.90
69245;BME280;56357;52.304;4.870;2022-11-21T12:04:18;100221.81;;;18.31;53.26
69245;BME280;56357;52.304;4.870;2022-11-21T12:06:56;100215.41;;;18.25;53.54
69245;BME280;56357;52.304;4.870;2022-11-21T12:12:08;100205.16;;;18.39;53.60
69245;BME280;56357;52.304;4.870;2022-11-21T12:17:53;100188.59;;;18.43;54.02
69245;BME280;56357;52.304;4.870;2022-11-21T12:22:55;100175.75;;;18.37;54.37
69245;BME280;56357;52.304;4.870;2022-11-21T12:25:37;100176.91;;;18.36;53.98
69245;BME280;56357;52.304;4.870;2022-11-21T12:28:19;100177.00;;;18.25;54.64
69245;BME280;56357;52.304;4.870;2022-11-21T12:30:58;100179.28;;;18.23;54.64
69245;BME280;56357;52.304;4.870;2022-11-21T12:33:29;100162.81;;;18.41;54.54
69245;BME280;56357;52.304;4.870;2022-11-21T12:39:12;100163.66;;;18.17;55.18
69245;BME280;56357;52.304;4.870;2022-11-21T12:59:38;100104.75;;;18.65;54.37
69245;BME280;56357;52.304;4.870;2022-11-21T13:02:25;100081.66;;;18.73;53.79
69245;BME280;56357;52.304;4.870;2022-11-21T13:04:55;100079.91;;;18.77;53.89
69245;BME280;56357;52.304;4.870;2022-11-21T13:07:24;100073.16;;;18.78;53.61
69245;BME280;56357;52.304;4.870;2022-11-21T13:09:55;100079.28;;;18.80;53.76
69245;BME280;56357;52.304;4.870;2022-11-21T13:12:29;100077.31;;;18.80;53.22
69245;BME280;56357;52.304;4.870;2022-11-21T13:15:33;100066.47;;;18.74;53.75
69245;BME280;56357;52.304;4.870;2022-11-21T13:18:32;100059.56;;;18.85;53.43
69245;BME280;56357;52.304;4.870;2022-11-21T13:21:00;100050.25;;;18.71;53.58
69245;BME280;56357;52.304;4.870;2022-11-21T13:23:37;100052.34;;;18.79;53.49
69245;BME280;56357;52.304;4.870;2022-11-21T13:28:50;100036.00;;;18.86;53.15
69245;BME280;56357;52.304;4.870;2022-11-21T13:31:33;100030.63;;;18.71;53.29
69245;BME280;56357;52.304;4.870;2022-11-21T13:34:01;100023.19;;;18.80;53.33
69245;BME280;56357;52.304;4.870;2022-11-21T13:44:40;99993.88;;;18.54;53.55
69245;BME280;56357;52.304;4.870;2022-11-21T13:52:41;99981.19;;;18.38;54.37
69245;BME280;56357;52.304;4.870;2022-11-21T13:58:04;99972.56;;;18.34;53.84
69245;BME280;56357;52.304;4.870;2022-11-21T14:01:09;99960.88;;;18.27;54.15
69245;BME280;56357;52.304;4.870;2022-11-21T14:06:08;99954.09;;;18.52;53.84
69245;BME280;56357;52.304;4.870;2022-11-21T14:08:38;99949.75;;;18.41;53.73
69245;BME280;56357;52.304;4.870;2022-11-21T14:11:19;99954.06;;;18.33;54.50
69245;BME280;56357;52.304;4.870;2022-11-21T14:13:48;99960.88;;;18.27;54.66
69245;BME280;56357;52.304;4.870;2022-11-21T14:16:35;99954.22;;;18.42;54.19
69245;BME280;56357;52.304;4.870;2022-11-21T14:19:11;99942.78;;;18.38;54.54
69245;BME280;56357;52.304;4.870;2022-11-21T14:21:38;99939.94;;;18.43;54.31
69245;BME280;56357;52.304;4.870;2022-11-21T14:24:14;99939.09;;;18.43;54.77
69245;BME280;56357;52.304;4.870;2022-11-21T14:26:45;99934.59;;;18.42;54.32
69245;BME280;56357;52.304;4.870;2022-11-21T14:29:39;99932.34;;;18.44;54.95
69245;BME280;56357;52.304;4.870;2022-11-21T14:32:13;99922.44;;;18.33;55.26
69245;BME280;56357;52.304;4.870;2022-11-21T14:34:39;99912.44;;;18.26;55.64